createdAt,value
2018-06-08T00:02:06.897Z,51.23
2018-06-08T00:04:35.015Z,51.90
2018-06-08T00:07:03.241Z,47.43
2018-06-08T00:09:31.393Z,51.70
2018-06-08T00:11:59.542Z,48.93
2018-06-08T00:14:27.699Z,45.90
2018-06-08T00:16:55.842Z,51.57
2018-06-08T00:19:23.992Z,50.80
2018-06-08T00:21:52.165Z,49.80
2018-06-08T00:24:20.327Z,44.17
2018-06-08T00:26:48.461Z,47.80
2018-06-08T00:29:16.634Z,51.40
2018-06-08T00:31:44.802Z,46.57
2018-06-08T00:34:12.946Z,46.20
2018-06-08T00:36:41.089Z,46.40
2018-06-08T00:39:09.642Z,46.77
2018-06-08T00:41:37.789Z,41.20
2018-06-08T00:44:05.935Z,41.93
2018-06-08T00:46:34.126Z,45.10
2018-06-08T00:49:02.270Z,47.83
2018-06-08T00:51:30.269Z,48.57
2018-06-08T00:53:58.501Z,47.43
2018-06-08T00:56:38.118Z,47.93
2018-06-08T00:59:06.280Z,47.20
2018-06-08T01:01:34.485Z,49.00
2018-06-08T01:04:02.636Z,50.37
2018-06-08T01:06:30.790Z,50.90
2018-06-08T01:08:59.848Z,51.23
2018-06-08T01:11:28.026Z,52.53
2018-06-08T01:13:57.002Z,51.90
2018-06-08T01:16:25.181Z,52.87
2018-06-08T01:18:53.321Z,48.23
2018-06-08T01:21:21.478Z,49.27
2018-06-08T01:23:49.710Z,53.97
2018-06-08T01:26:17.862Z,49.97
2018-06-08T01:28:45.998Z,49.83
2018-06-08T01:31:14.122Z,50.00
2018-06-08T01:33:43.093Z,52.00
2018-06-08T01:36:11.249Z,45.57
2018-06-08T01:38:39.391Z,48.37
2018-06-08T01:41:07.546Z,53.30
2018-06-08T01:43:35.681Z,49.77
2018-06-08T01:46:03.994Z,45.70
2018-06-08T01:48:32.175Z,53.77
2018-06-08T01:51:00.413Z,45.30
2018-06-08T01:53:28.314Z,51.07
2018-06-08T01:55:56.461Z,51.17
2018-06-08T01:58:24.402Z,47.97
2018-06-08T02:00:52.579Z,52.50
2018-06-08T02:03:20.706Z,54.00
2018-06-08T02:05:49.549Z,53.97
2018-06-08T02:08:17.979Z,51.50
2018-06-08T02:10:46.161Z,54.40
2018-06-08T02:13:14.302Z,50.80
2018-06-08T02:15:42.462Z,47.73
2018-06-08T02:18:10.613Z,54.10
2018-06-08T02:20:38.766Z,52.07
2018-06-08T02:23:06.905Z,53.20
2018-06-08T02:25:35.062Z,52.60
2018-06-08T02:28:03.214Z,53.97
2018-06-08T02:30:31.367Z,51.83
2018-06-08T02:32:59.522Z,56.23
2018-06-08T02:35:27.806Z,55.10
2018-06-08T02:37:56.033Z,51.17
2018-06-08T02:40:24.251Z,55.40
2018-06-08T02:42:52.530Z,56.30
2018-06-08T02:45:20.634Z,48.30
2018-06-08T02:47:48.746Z,52.20
2018-06-08T02:50:16.902Z,57.33
2018-06-08T02:52:45.105Z,59.27
2018-06-08T02:55:13.397Z,58.80
2018-06-08T02:57:41.545Z,51.27
2018-06-08T03:00:09.710Z,57.33
2018-06-08T03:02:37.946Z,57.40
2018-06-08T03:05:06.106Z,58.90
2018-06-08T03:07:34.245Z,53.70
2018-06-08T03:10:02.393Z,57.63
2018-06-08T03:12:30.570Z,58.90
2018-06-08T03:14:58.790Z,61.87
2018-06-08T03:17:26.945Z,60.03
2018-06-08T03:19:55.094Z,62.53
2018-06-08T03:22:23.270Z,61.07
2018-06-08T03:24:51.432Z,62.17
2018-06-08T03:27:19.594Z,57.37
2018-06-08T03:29:47.733Z,60.10
2018-06-08T03:32:15.885Z,60.23
2018-06-08T03:34:44.030Z,64.80
2018-06-08T03:37:12.182Z,65.00
2018-06-08T03:39:40.329Z,63.03
2018-06-08T03:42:08.493Z,62.57
2018-06-08T03:44:37.274Z,65.30
2018-06-08T03:47:05.493Z,66.33
2018-06-08T03:49:33.638Z,65.03
2018-06-08T03:52:01.798Z,65.97
2018-06-08T03:54:29.942Z,66.63
2018-06-08T03:56:58.167Z,64.90
2018-06-08T03:59:26.389Z,65.37
2018-06-08T04:01:54.541Z,62.30
2018-06-08T04:04:22.698Z,62.17
2018-06-08T04:06:51.148Z,62.17
2018-06-08T04:09:19.355Z,62.63
2018-06-08T04:11:47.507Z,60.43
2018-06-08T04:14:15.654Z,62.70
2018-06-08T04:16:43.810Z,57.47
2018-06-08T04:19:11.957Z,59.43
2018-06-08T04:21:40.121Z,62.07
2018-06-08T04:24:08.265Z,58.67
2018-06-08T04:26:36.940Z,62.13
2018-06-08T04:29:05.145Z,62.37
2018-06-08T04:31:33.294Z,63.30
2018-06-08T04:34:01.514Z,61.17
2018-06-08T04:36:29.621Z,55.00
2018-06-08T04:38:57.811Z,57.67
2018-06-08T04:41:26.093Z,55.33
2018-06-08T04:43:54.250Z,53.60
2018-06-08T04:46:22.390Z,59.03
2018-06-08T04:48:50.625Z,60.20
2018-06-08T04:51:18.838Z,55.60
2018-06-08T04:53:47.034Z,58.43
2018-06-08T04:56:15.194Z,52.10
2018-06-08T04:58:43.372Z,53.50
2018-06-08T05:01:11.479Z,49.50
2018-06-08T05:03:39.674Z,57.40
2018-06-08T05:06:07.788Z,53.53
2018-06-08T05:08:35.934Z,54.33
2018-06-08T05:11:04.074Z,56.90
2018-06-08T05:13:32.346Z,53.37
2018-06-08T05:16:00.498Z,50.07
2018-06-08T05:18:28.654Z,54.30
2018-06-08T05:20:56.830Z,53.53
2018-06-08T05:23:25.049Z,48.60
2018-06-08T05:25:53.189Z,54.80
2018-06-08T05:28:21.286Z,54.90
2018-06-08T05:30:50.413Z,53.10
2018-06-08T05:33:18.525Z,51.43
2018-06-08T05:35:46.675Z,50.90
2018-06-08T05:38:14.826Z,48.70
2018-06-08T05:40:42.986Z,50.53
2018-06-08T05:43:11.142Z,45.80
2018-06-08T05:45:39.286Z,49.30
2018-06-08T05:48:08.154Z,47.73
2018-06-08T05:50:36.250Z,48.83
2018-06-08T05:53:04.733Z,48.03
2018-06-08T05:55:32.869Z,45.67
2018-06-08T05:58:01.069Z,45.93
2018-06-08T06:00:29.285Z,42.93
2018-06-08T06:02:57.438Z,44.83
2018-06-08T06:05:25.582Z,40.70
2018-06-08T06:07:53.762Z,45.70
2018-06-08T06:10:21.901Z,44.90
2018-06-08T06:12:50.050Z,41.07
2018-06-08T06:15:18.191Z,44.20
2018-06-08T06:17:46.342Z,40.93
2018-06-08T06:20:14.537Z,37.00
2018-06-08T06:22:42.690Z,40.50
2018-06-08T06:25:10.862Z,40.67
2018-06-08T06:27:39.017Z,37.63
2018-06-08T06:30:07.166Z,36.80
2018-06-08T06:32:35.113Z,37.93
2018-06-08T06:35:03.287Z,41.10
2018-06-08T06:37:31.427Z,35.53
2018-06-08T06:39:59.610Z,39.00
2018-06-08T06:42:27.757Z,39.20
2018-06-08T06:44:55.956Z,37.13
2018-06-08T06:47:24.090Z,39.10
2018-06-08T06:49:52.317Z,38.37
2018-06-08T06:52:20.466Z,40.53
2018-06-08T06:54:48.605Z,40.80
2018-06-08T06:57:16.742Z,37.73
2018-06-08T06:59:44.901Z,38.37
2018-06-08T07:02:13.043Z,39.07
2018-06-08T07:04:41.197Z,36.10
2018-06-08T07:07:09.338Z,37.20
2018-06-08T07:09:37.482Z,38.07
2018-06-08T07:12:05.630Z,36.60
2018-06-08T07:14:33.782Z,33.90
2018-06-08T07:17:01.921Z,37.53
2018-06-08T07:19:30.069Z,33.53
2018-06-08T07:21:58.318Z,36.13
2018-06-08T07:24:26.467Z,36.20
2018-06-08T07:26:54.597Z,32.00
2018-06-08T07:29:22.762Z,37.77
2018-06-08T07:31:51.064Z,34.33
2018-06-08T07:34:19.190Z,34.17
2018-06-08T07:36:47.342Z,32.20
2018-06-08T07:39:15.493Z,33.00
2018-06-08T07:41:43.662Z,35.77
2018-06-08T07:44:11.818Z,28.07
2018-06-08T07:46:39.937Z,31.87
2018-06-08T07:49:08.038Z,29.83
2018-06-08T07:51:36.137Z,27.03
2018-06-08T07:54:04.270Z,30.47
2018-06-08T07:56:32.477Z,29.33
2018-06-08T07:59:00.445Z,32.90
2018-06-08T08:01:28.554Z,32.20
2018-06-08T08:03:56.713Z,32.83
2018-06-08T08:06:24.829Z,30.60
2018-06-08T08:08:53.058Z,32.20
2018-06-08T08:11:21.049Z,31.77
2018-06-08T08:13:49.270Z,28.90
2018-06-08T08:16:17.369Z,32.47
2018-06-08T08:18:45.490Z,33.00
2018-06-08T08:21:13.601Z,33.30
2018-06-08T08:23:41.714Z,32.33
2018-06-08T08:26:09.840Z,31.10
2018-06-08T08:28:38.034Z,32.20
2018-06-08T08:31:06.158Z,34.97
2018-06-08T08:33:34.258Z,34.80
2018-06-08T08:36:02.397Z,33.80
2018-06-08T08:38:30.506Z,35.50
2018-06-08T08:40:58.674Z,30.73
2018-06-08T08:43:26.577Z,33.90
2018-06-08T08:45:54.802Z,31.50
2018-06-08T08:48:22.949Z,33.43
2018-06-08T08:50:51.098Z,34.50
2018-06-08T08:53:19.245Z,37.23
2018-06-08T08:55:47.465Z,35.30
2018-06-08T08:58:15.601Z,34.90
2018-06-08T09:00:43.794Z,35.10
2018-06-08T09:03:11.938Z,35.57
2018-06-08T09:05:40.103Z,37.87
2018-06-08T09:08:08.213Z,36.57
2018-06-08T09:10:36.325Z,34.60
2018-06-08T09:13:04.525Z,34.20
2018-06-08T09:15:32.830Z,37.17
2018-06-08T09:18:00.969Z,37.60
2018-06-08T09:20:29.201Z,36.30
2018-06-08T09:22:57.266Z,36.93
2018-06-08T09:25:25.438Z,34.47
2018-06-08T09:27:53.564Z,34.00
2018-06-08T09:30:21.686Z,40.17
2018-06-08T09:32:49.813Z,42.60
2018-06-08T09:35:17.969Z,43.87
2018-06-08T09:37:46.134Z,43.07
2018-06-08T09:40:14.080Z,44.60
2018-06-08T09:42:42.189Z,45.03
2018-06-08T09:45:10.437Z,39.27
2018-06-08T09:47:38.590Z,38.10
2018-06-08T09:50:06.730Z,39.73
2018-06-08T09:52:34.841Z,41.67
2018-06-08T09:55:02.953Z,39.43
2018-06-08T09:57:30.934Z,40.20
2018-06-08T09:59:59.085Z,37.70
2018-06-08T10:02:27.198Z,41.33
2018-06-08T10:04:55.321Z,41.10
2018-06-08T10:07:23.562Z,41.80
2018-06-08T10:09:51.702Z,46.70
2018-06-08T10:12:19.822Z,42.00
2018-06-08T10:14:47.930Z,47.43
2018-06-08T10:17:16.181Z,51.37
2018-06-08T10:19:44.289Z,50.77
2018-06-08T10:22:12.406Z,50.70
2018-06-08T10:24:40.517Z,44.00
2018-06-08T10:27:08.686Z,45.17
2018-06-08T10:29:36.825Z,46.03
2018-06-08T10:32:04.941Z,46.37
2018-06-08T10:34:33.054Z,46.03
2018-06-08T10:37:01.252Z,45.00
2018-06-08T10:39:29.361Z,47.00
2018-06-08T10:41:57.526Z,45.40
2018-06-08T10:44:25.665Z,45.60
2018-06-08T10:46:53.938Z,47.60
2018-06-08T10:49:22.137Z,44.10
2018-06-08T10:51:50.289Z,42.57
2018-06-08T10:54:18.511Z,40.53
2018-06-08T10:56:46.454Z,43.20
2018-06-08T10:59:15.297Z,39.23
2018-06-08T11:01:43.462Z,46.87
2018-06-08T11:04:11.638Z,44.17
2018-06-08T11:06:39.786Z,46.50
2018-06-08T11:09:08.693Z,44.20
2018-06-08T11:11:37.054Z,44.10
2018-06-08T11:14:05.227Z,45.03
2018-06-08T11:16:33.370Z,48.27
2018-06-08T11:19:01.526Z,49.13
2018-06-08T11:21:29.698Z,42.40
2018-06-08T11:23:57.866Z,45.30
2018-06-08T11:26:26.042Z,44.27
2018-06-08T11:28:54.199Z,40.27
2018-06-08T11:31:22.342Z,47.77
2018-06-08T11:33:50.507Z,46.60
2018-06-08T11:36:18.722Z,49.27
2018-06-08T11:38:46.923Z,49.70
2018-06-08T11:41:15.047Z,49.73
2018-06-08T11:43:43.182Z,50.57
2018-06-08T11:46:11.338Z,50.57
2018-06-08T11:48:40.047Z,50.30
2018-06-08T11:51:08.166Z,48.77
2018-06-08T11:53:36.542Z,45.97
2018-06-08T11:56:04.946Z,54.60
2018-06-08T11:58:33.134Z,57.00
2018-06-08T12:01:01.315Z,54.87
2018-06-08T12:03:29.443Z,47.10
2018-06-08T12:05:57.618Z,54.40
2018-06-08T12:08:25.775Z,53.30
2018-06-08T12:10:53.994Z,52.67
2018-06-08T12:13:22.159Z,48.00
2018-06-08T12:15:50.284Z,49.53
2018-06-08T12:18:18.389Z,50.47
2018-06-08T12:20:46.542Z,47.53
2018-06-08T12:23:14.654Z,44.47
2018-06-08T12:25:42.574Z,41.80
2018-06-08T12:28:10.701Z,48.63
2018-06-08T12:30:39.162Z,49.27
2018-06-08T12:33:07.302Z,45.60
2018-06-08T12:35:35.426Z,48.70
2018-06-08T12:38:03.935Z,45.80
2018-06-08T12:40:32.064Z,46.50
2018-06-08T12:43:00.183Z,48.03
2018-06-08T12:45:28.297Z,40.80
2018-06-08T12:47:56.422Z,43.93
2018-06-08T12:50:24.546Z,42.50
2018-06-08T12:52:52.689Z,36.43
2018-06-08T12:55:20.857Z,41.83
2018-06-08T12:57:49.074Z,40.73
2018-06-08T13:00:17.177Z,38.90
2018-06-08T13:02:45.486Z,36.60
2018-06-08T13:05:13.621Z,40.13
2018-06-08T13:07:41.858Z,42.97
2018-06-08T13:10:10.203Z,43.40
2018-06-08T13:12:38.973Z,42.00
2018-06-08T13:15:07.110Z,43.00
2018-06-08T13:17:36.022Z,43.07
2018-06-08T13:20:04.459Z,42.13
2018-06-08T13:22:32.738Z,44.23
2018-06-08T13:25:00.890Z,43.03
2018-06-08T13:27:28.977Z,45.30
2018-06-08T13:29:57.256Z,41.73
2018-06-08T13:32:25.402Z,44.67
2018-06-08T13:34:53.509Z,39.70
2018-06-08T13:37:21.626Z,40.90
2018-06-08T13:39:49.747Z,42.00
2018-06-08T13:42:17.879Z,47.00
2018-06-08T13:44:45.989Z,45.53
2018-06-08T13:47:14.089Z,42.50
2018-06-08T13:49:42.205Z,42.73
2018-06-08T13:52:10.341Z,46.03
2018-06-08T13:54:38.561Z,40.83
2018-06-08T13:57:06.674Z,42.90
2018-06-08T13:59:34.794Z,45.87
2018-06-08T14:02:02.945Z,42.70
2018-06-08T14:04:31.060Z,36.93
2018-06-08T14:06:59.194Z,39.70
2018-06-08T14:09:27.310Z,42.17
2018-06-08T14:11:55.497Z,41.65
2018-06-08T14:14:23.565Z,38.47
2018-06-08T14:16:51.684Z,36.10
2018-06-08T14:19:19.883Z,35.40
2018-06-08T14:21:48.006Z,37.70
2018-06-08T14:24:16.137Z,36.13
2018-06-08T14:26:44.266Z,34.30
2018-06-08T14:29:12.402Z,34.43
2018-06-08T14:31:40.621Z,35.23
2018-06-08T14:34:08.732Z,32.87
2018-06-08T14:36:36.838Z,30.57
2018-06-08T14:39:07.438Z,29.40
2018-06-08T14:41:35.961Z,31.70
2018-06-08T14:44:04.262Z,29.50
2018-06-08T14:46:32.486Z,34.77
2018-06-08T14:49:00.574Z,29.67
2018-06-08T14:51:28.706Z,32.00
2018-06-08T14:53:56.937Z,35.30
2018-06-08T14:56:25.046Z,33.17
2018-06-08T14:58:53.141Z,32.20
2018-06-08T15:01:21.091Z,34.30
2018-06-08T15:03:49.242Z,36.33
2018-06-08T15:06:17.489Z,35.50
2018-06-08T15:08:45.586Z,32.37
2018-06-08T15:11:13.708Z,33.33
2018-06-08T15:13:41.825Z,30.30
2018-06-08T15:16:09.954Z,33.40
2018-06-08T15:18:38.060Z,27.90
2018-06-08T15:21:06.194Z,30.43
2018-06-08T15:23:34.302Z,30.87
2018-06-08T15:26:02.431Z,33.23
2018-06-08T15:28:30.534Z,27.57
2018-06-08T15:30:58.650Z,30.83
2018-06-08T15:33:26.770Z,27.43
2018-06-08T15:35:54.897Z,21.93
2018-06-08T15:38:23.067Z,34.10
2018-06-08T15:40:51.211Z,33.00
2018-06-08T15:43:19.317Z,35.20
2018-06-08T15:45:47.450Z,37.40
2018-06-08T15:48:15.601Z,37.93
2018-06-08T15:50:43.675Z,28.80
2018-06-08T15:53:11.793Z,36.77
2018-06-08T15:55:39.906Z,34.90
2018-06-08T15:58:08.097Z,33.87
2018-06-08T16:00:36.222Z,31.50
2018-06-08T16:03:04.330Z,34.10
2018-06-08T16:05:32.441Z,31.10
2018-06-08T16:08:00.650Z,25.80
2018-06-08T16:10:28.758Z,29.30
2018-06-08T16:12:56.734Z,31.50
2018-06-08T16:15:24.829Z,35.70
2018-06-08T16:17:52.947Z,34.70
2018-06-08T16:20:21.057Z,33.10
2018-06-08T16:22:49.175Z,35.10
2018-06-08T16:25:17.277Z,31.13
2018-06-08T16:27:45.414Z,29.17
2018-06-08T16:30:13.514Z,30.10
2018-06-08T16:32:41.625Z,31.43
2018-06-08T16:35:09.734Z,32.03
2018-06-08T16:37:37.838Z,31.37
2018-06-08T16:40:05.987Z,34.17
2018-06-08T16:42:34.078Z,33.37
2018-06-08T16:45:02.189Z,32.10
2018-06-08T16:47:30.305Z,35.67
2018-06-08T16:49:58.449Z,27.93
2018-06-08T16:52:26.545Z,30.57
2018-06-08T16:54:54.675Z,35.73
2018-06-08T16:57:22.786Z,37.60
2018-06-08T16:59:50.889Z,30.30
2018-06-08T17:02:19.084Z,32.17
2018-06-08T17:04:47.249Z,34.23
2018-06-08T17:07:15.345Z,34.60
2018-06-08T17:09:43.463Z,27.03
2018-06-08T17:12:11.608Z,30.73
2018-06-08T17:14:39.673Z,33.50
2018-06-08T17:17:07.780Z,26.90
2018-06-08T17:19:35.891Z,32.50
2018-06-08T17:22:03.773Z,34.40
2018-06-08T17:24:31.888Z,32.67
2018-06-08T17:26:59.986Z,38.87
2018-06-08T17:29:28.221Z,34.75
2018-06-08T17:31:56.333Z,33.50
2018-06-08T17:34:24.458Z,37.17
2018-06-08T17:36:52.606Z,33.40
2018-06-08T17:39:20.717Z,36.93
2018-06-08T17:41:48.890Z,38.33
2018-06-08T17:44:17.025Z,37.00
2018-06-08T17:46:45.214Z,37.70
2018-06-08T17:49:13.385Z,37.67
2018-06-08T17:51:41.542Z,39.20
2018-06-08T17:54:09.677Z,40.20
2018-06-08T17:56:37.878Z,40.60
2018-06-08T17:59:06.166Z,40.17
2018-06-08T18:01:34.309Z,38.30
2018-06-08T18:04:02.459Z,41.00
2018-06-08T18:06:30.630Z,42.37
2018-06-08T18:08:58.777Z,41.93
2018-06-08T18:11:26.958Z,41.03
2018-06-08T18:13:55.094Z,38.83
2018-06-08T18:16:23.246Z,36.20
2018-06-08T18:18:51.398Z,41.00
2018-06-08T18:21:19.550Z,36.97
2018-06-08T18:23:47.690Z,39.83
2018-06-08T18:26:15.865Z,35.90
2018-06-08T18:28:44.006Z,39.73
2018-06-08T18:31:12.151Z,41.27
2018-06-08T18:33:40.315Z,36.87
2018-06-08T18:36:08.469Z,35.53
2018-06-08T18:38:36.614Z,41.30
2018-06-08T18:41:04.766Z,43.37
2018-06-08T18:43:32.921Z,36.13
2018-06-08T18:46:01.070Z,43.73
2018-06-08T18:48:29.262Z,42.13
2018-06-08T18:50:57.437Z,43.30
2018-06-08T18:53:25.590Z,40.20
2018-06-08T18:55:53.736Z,39.10
2018-06-08T18:58:21.911Z,35.30
2018-06-08T19:00:50.058Z,40.27
2018-06-08T19:03:18.209Z,39.53
2018-06-08T19:05:46.378Z,37.20
2018-06-08T19:08:14.617Z,38.67
2018-06-08T19:10:42.750Z,39.03
2018-06-08T19:13:11.276Z,41.07
2018-06-08T19:15:39.430Z,39.50
2018-06-08T19:18:07.603Z,39.00
2018-06-08T19:20:35.745Z,42.77
2018-06-08T19:23:03.926Z,41.13
2018-06-08T19:25:32.087Z,43.87
2018-06-08T19:28:00.245Z,44.10
2018-06-08T19:30:28.390Z,38.37
2018-06-08T19:32:56.550Z,41.73
2018-06-08T19:35:24.760Z,43.87
2018-06-08T19:37:52.905Z,44.00
2018-06-08T19:40:21.145Z,39.20
2018-06-08T19:42:49.258Z,32.50
2018-06-08T19:45:17.438Z,42.77
2018-06-08T19:47:45.668Z,39.50
2018-06-08T19:50:13.857Z,40.87
2018-06-08T19:52:41.990Z,44.17
2018-06-08T19:55:10.178Z,44.40
2018-06-08T19:59:50.598Z,46.60
2018-06-08T20:02:18.742Z,44.03
2018-06-08T20:04:46.918Z,45.30
2018-06-08T20:07:15.058Z,45.37
2018-06-08T20:09:43.230Z,46.50
2018-06-08T20:12:11.414Z,43.77
2018-06-08T20:14:39.561Z,46.27
2018-06-08T20:17:07.726Z,42.27
2018-06-08T20:19:36.217Z,44.77
2018-06-08T20:22:04.374Z,46.63
2018-06-08T20:24:32.598Z,47.53
2018-06-08T20:27:00.726Z,49.80
2018-06-08T20:29:28.913Z,48.60
2018-06-08T20:31:57.066Z,47.40
2018-06-08T20:34:25.209Z,47.67
2018-06-08T20:36:53.373Z,47.30
2018-06-08T20:39:21.526Z,48.70
2018-06-08T20:41:49.673Z,50.67
2018-06-08T20:44:17.790Z,46.87
2018-06-08T20:46:46.614Z,41.40
2018-06-08T20:49:15.613Z,46.77
2018-06-08T20:51:43.734Z,49.20
2018-06-08T20:54:11.913Z,49.80
2018-06-08T20:56:39.858Z,51.40
2018-06-08T20:59:07.968Z,52.67
2018-06-08T21:01:36.106Z,47.20
2018-06-08T21:04:04.226Z,51.27
2018-06-08T21:06:32.349Z,45.70
2018-06-08T21:09:00.460Z,49.27
2018-06-08T21:11:28.582Z,49.20
2018-06-08T21:13:56.711Z,47.73
2018-06-08T21:16:24.834Z,50.90
2018-06-08T21:18:52.999Z,50.90
2018-06-08T21:21:21.165Z,45.47
2018-06-08T21:23:49.239Z,51.93
2018-06-08T21:26:17.364Z,51.87
2018-06-08T21:28:45.469Z,45.93
2018-06-08T21:31:13.590Z,51.50
2018-06-08T21:33:41.714Z,52.70
2018-06-08T21:36:09.828Z,54.33
2018-06-08T21:38:37.930Z,50.73
2018-06-08T21:41:06.065Z,48.57
2018-06-08T21:43:34.173Z,50.40
2018-06-08T21:46:02.289Z,52.03
2018-06-08T21:48:30.411Z,51.70
2018-06-08T21:50:58.525Z,53.43
2018-06-08T21:53:26.677Z,53.37
2018-06-08T21:55:54.781Z,43.30
2018-06-08T21:58:22.902Z,53.70
2018-06-08T22:00:51.322Z,49.87
2018-06-08T22:03:19.442Z,54.60
2018-06-08T22:05:47.554Z,53.47
2018-06-08T22:08:15.669Z,55.40
2018-06-08T22:10:43.810Z,57.17
2018-06-08T22:13:11.906Z,58.37
2018-06-08T22:15:40.090Z,62.53
2018-06-08T22:18:08.222Z,60.80
2018-06-08T22:20:36.325Z,58.63
2018-06-08T22:23:04.464Z,62.80
2018-06-08T22:25:32.558Z,51.57
2018-06-08T22:28:01.249Z,58.27
2018-06-08T22:30:29.386Z,61.40
2018-06-08T22:32:57.506Z,59.17
2018-06-08T22:35:25.613Z,58.30
2018-06-08T22:37:53.778Z,59.90
2018-06-08T22:40:21.915Z,59.03
2018-06-08T22:42:50.088Z,62.07
2018-06-08T22:45:18.242Z,60.97
2018-06-08T22:47:46.367Z,60.00
2018-06-08T22:50:14.498Z,57.70
2018-06-08T22:52:42.630Z,60.13
2018-06-08T22:55:10.793Z,58.73
2018-06-08T22:57:38.911Z,56.03
2018-06-08T23:00:07.133Z,59.17
2018-06-08T23:02:35.340Z,57.63
2018-06-08T23:05:03.466Z,47.17
2018-06-08T23:07:31.585Z,52.73
2018-06-08T23:09:59.711Z,57.07
2018-06-08T23:12:27.834Z,54.83
2018-06-08T23:14:55.990Z,56.77
2018-06-08T23:17:23.893Z,56.83
2018-06-08T23:19:52.026Z,55.63
2018-06-08T23:22:20.191Z,52.67
2018-06-08T23:24:48.367Z,54.70
2018-06-08T23:27:16.489Z,53.10
2018-06-08T23:29:44.629Z,51.50
2018-06-08T23:32:12.746Z,44.57
2018-06-08T23:34:40.877Z,53.23
2018-06-08T23:37:09.022Z,50.33
2018-06-08T23:39:37.177Z,39.23
2018-06-08T23:42:05.421Z,45.50
2018-06-08T23:44:33.606Z,43.97
2018-06-08T23:47:02.318Z,49.10
2018-06-08T23:49:30.512Z,44.30
2018-06-08T23:51:58.685Z,42.20
2018-06-08T23:54:26.834Z,46.00
2018-06-08T23:56:55.049Z,44.43
2018-06-08T23:59:23.225Z,45.50
